Time;durP1;ratioP1;P1;durP2;ratioP2;P2;SDS_P1;SDS_P2;PMS_P1;PMS_P2;Temp;Humidity;BMP_temperature;BMP_pressure;BME280_temperature;BME280_humidity;BME280_pressure;Samples;Min_cycle;Max_cycle;Signal;HPM_P1;HPM_P2
2021/01/03 00:00:25;;;;;;;64.43;37.60;;;3.70;99.90;;;;;;5034867;28;20265;-77
2021/01/03 00:02:51;;;;;;;66.87;37.80;;;3.70;99.90;;;;;;5017699;28;20217;-77
2021/01/03 00:05:18;;;;;;;63.93;35.77;;;3.70;99.90;;;;;;5017400;28;20183;-77
2021/01/03 00:07:44;;;;;;;67.57;37.43;;;3.60;99.90;;;;;;5033220;28;20189;-77
2021/01/03 00:10:10;;;;;;;68.53;38.30;;;3.60;99.90;;;;;;5017145;28;20198;-77
2021/01/03 00:12:35;;;;;;;61.30;34.93;;;3.60;99.90;;;;;;5016888;28;20218;-77
2021/01/03 00:15:02;;;;;;;61.53;35.50;;;3.70;99.90;;;;;;5033462;28;20179;-77
2021/01/03 00:17:27;;;;;;;60.80;35.37;;;3.60;99.90;;;;;;5016766;28;20183;-77
2021/01/03 00:19:53;;;;;;;65.10;36.07;;;3.70;99.90;;;;;;5017361;28;20235;-77
2021/01/03 00:22:18;;;;;;;65.10;35.93;;;3.60;99.90;;;;;;5017060;28;20195;-77
2021/01/03 00:24:44;;;;;;;66.33;35.70;;;3.70;99.90;;;;;;5017200;28;20186;-77
2021/01/03 00:27:09;;;;;;;62.07;34.50;;;3.70;99.90;;;;;;5032992;28;20186;-77
2021/01/03 00:29:35;;;;;;;63.67;36.03;;;3.70;99.90;;;;;;5033115;28;20191;-77
2021/01/03 00:32:00;;;;;;;62.10;36.13;;;3.60;99.90;;;;;;5016870;28;20201;-77
2021/01/03 00:34:26;;;;;;;70.17;37.30;;;3.60;99.90;;;;;;5033170;28;20179;-77
2021/01/03 00:36:52;;;;;;;60.77;34.17;;;3.50;99.90;;;;;;5016476;28;20217;-77
2021/01/03 00:39:17;;;;;;;66.23;35.13;;;3.60;99.90;;;;;;5016588;28;20309;-77
2021/01/03 00:41:47;;;;;;;62.90;35.00;;;3.50;99.90;;;;;;5016082;28;20202;-77
2021/01/03 00:44:12;;;;;;;64.63;34.63;;;3.60;99.90;;;;;;5017036;28;20264;-77
2021/01/03 00:46:38;;;;;;;64.20;33.87;;;3.60;99.90;;;;;;5016239;28;20206;-77
2021/01/03 00:49:03;;;;;;;57.73;32.67;;;3.60;99.90;;;;;;5032072;28;20178;-77
2021/01/03 00:51:29;;;;;;;60.13;33.17;;;3.60;99.90;;;;;;5016235;28;20187;-77
2021/01/03 00:53:54;;;;;;;59.07;33.43;;;3.70;99.90;;;;;;5032728;28;20213;-77
2021/01/03 00:56:22;;;;;;;57.60;33.37;;;3.70;99.90;;;;;;5015879;28;20238;-77
2021/01/03 00:58:47;;;;;;;59.60;34.70;;;3.70;99.90;;;;;;5016566;28;20229;-77
2021/01/03 01:01:13;;;;;;;56.73;33.10;;;3.50;99.90;;;;;;5015666;28;20179;-77
2021/01/03 01:03:38;;;;;;;61.67;33.33;;;3.60;99.90;;;;;;5032683;28;20666;-77
2021/01/03 01:06:04;;;;;;;57.90;32.00;;;3.60;99.90;;;;;;5032492;28;20592;-77
2021/01/03 01:08:30;;;;;;;57.90;32.47;;;3.60;99.90;;;;;;5016215;28;20562;-77
2021/01/03 01:10:55;;;;;;;60.50;33.53;;;3.60;99.90;;;;;;5032256;28;20183;-77
2021/01/03 01:13:21;;;;;;;59.80;31.40;;;3.60;99.90;;;;;;5015051;28;20304;-75
2021/01/03 01:15:46;;;;;;;59.60;33.47;;;3.50;99.90;;;;;;5016179;28;20233;-77
2021/01/03 01:18:12;;;;;;;56.27;31.47;;;3.50;99.90;;;;;;5032625;28;20213;-77
2021/01/03 01:20:37;;;;;;;55.30;31.20;;;3.50;99.90;;;;;;5016166;28;20174;-77
2021/01/03 01:23:03;;;;;;;58.93;32.63;;;3.60;99.90;;;;;;5015931;28;20271;-78
2021/01/03 01:25:30;;;;;;;58.07;32.97;;;3.50;99.90;;;;;;5015895;28;20227;-78
2021/01/03 01:27:55;;;;;;;53.87;32.53;;;3.50;99.90;;;;;;5015608;28;20646;-79
2021/01/03 01:30:22;;;;;;;58.97;31.67;;;3.60;99.90;;;;;;5015755;28;20225;-77
2021/01/03 01:32:47;;;;;;;54.80;32.67;;;3.60;99.90;;;;;;5015547;28;20242;-78
2021/01/03 01:35:16;;;;;;;55.03;31.87;;;3.60;99.90;;;;;;5015597;28;20662;-78
2021/01/03 01:37:42;;;;;;;55.40;31.10;;;3.50;99.90;;;;;;5015315;28;20232;-78
2021/01/03 01:40:08;;;;;;;53.40;30.93;;;3.50;99.90;;;;;;5015325;28;20177;-78
2021/01/03 01:42:34;;;;;;;56.37;31.27;;;3.50;99.90;;;;;;5015464;28;20680;-78
2021/01/03 01:45:00;;;;;;;53.80;31.70;;;3.60;99.90;;;;;;5015560;28;20201;-77
2021/01/03 01:47:31;;;;;;;54.93;30.77;;;3.60;99.90;;;;;;5014722;28;20188;-75
2021/01/03 01:49:59;;;;;;;57.37;31.73;;;3.70;99.90;;;;;;5014268;28;20174;-76
2021/01/03 01:52:27;;;;;;;50.00;30.47;;;3.70;99.90;;;;;;5014558;28;20198;-77
2021/01/03 01:54:55;;;;;;;55.57;30.87;;;3.60;99.90;;;;;;5014399;28;20184;-76
2021/01/03 01:57:24;;;;;;;54.10;30.80;;;3.70;99.90;;;;;;5014196;28;20206;-76
2021/01/03 01:59:58;;;;;;;53.00;30.40;;;3.60;99.90;;;;;;5016016;28;20198;-76
2021/01/03 02:02:48;;;;;;;59.57;30.60;;;3.60;99.90;;;;;;5021189;28;20194;-78
2021/01/03 02:05:18;;;;;;;52.53;30.53;;;3.70;99.90;;;;;;5038071;28;20517;-78
2021/01/03 02:07:44;;;;;;;55.20;30.97;;;3.70;99.90;;;;;;5038021;28;20645;-78
2021/01/03 02:10:19;;;;;;;54.23;30.70;;;3.60;99.90;;;;;;5037886;28;20178;-78
2021/01/03 02:12:46;;;;;;;59.10;31.13;;;3.50;99.90;;;;;;5037764;28;20691;-78
2021/01/03 02:15:24;;;;;;;56.73;29.60;;;3.50;99.90;;;;;;5021488;28;20178;-77
2021/01/03 02:17:49;;;;;;;55.17;30.70;;;3.50;99.90;;;;;;5023080;28;20314;-78
2021/01/03 02:20:15;;;;;;;57.33;30.20;;;3.50;99.90;;;;;;5021896;28;20230;-78
2021/01/03 02:22:54;;;;;;;53.40;30.03;;;3.60;99.90;;;;;;5022268;28;20201;-78
2021/01/03 02:25:20;;;;;;;54.73;29.53;;;3.50;99.90;;;;;;5022215;28;20181;-77
2021/01/03 02:28:15;;;;;;;48.80;28.40;;;3.50;99.90;;;;;;5021474;28;20184;-78
2021/01/03 02:30:41;;;;;;;55.17;29.83;;;3.60;99.90;;;;;;5038233;28;20182;-78
2021/01/03 02:33:09;;;;;;;51.77;30.00;;;3.50;99.90;;;;;;5022337;28;20217;-78
2021/01/03 02:35:37;;;;;;;52.07;29.23;;;3.50;99.90;;;;;;5038238;28;20315;-78
2021/01/03 02:38:02;;;;;;;53.03;30.13;;;3.50;99.90;;;;;;5022202;28;20179;-78
2021/01/03 02:40:28;;;;;;;51.23;30.13;;;3.50;99.90;;;;;;5021797;28;20178;-77
2021/01/03 02:42:53;;;;;;;52.93;30.20;;;3.50;99.90;;;;;;5021742;28;20744;-78
2021/01/03 02:45:27;;;;;;;50.53;28.90;;;3.60;99.90;;;;;;5038697;28;20217;-79
2021/01/03 02:47:53;;;;;;;51.33;28.53;;;3.60;99.90;;;;;;5022255;28;20240;-77
2021/01/03 02:50:21;;;;;;;53.00;28.60;;;3.50;99.90;;;;;;5020865;28;20178;-76
2021/01/03 02:52:47;;;;;;;50.57;29.10;;;3.50;99.90;;;;;;5021567;28;20202;-76
2021/01/03 02:55:13;;;;;;;52.93;28.27;;;3.50;99.90;;;;;;5036809;28;20387;-76
2021/01/03 02:57:39;;;;;;;50.93;28.50;;;3.50;99.90;;;;;;5020515;28;20266;-78
2021/01/03 03:00:10;;;;;;;54.40;30.00;;;3.50;99.90;;;;;;5038237;28;20258;-78
2021/01/03 03:02:36;;;;;;;50.47;28.53;;;3.50;99.90;;;;;;5025728;28;20197;-79
2021/01/03 03:05:03;;;;;;;53.10;29.93;;;3.50;99.90;;;;;;5047071;28;20608;-78
2021/01/03 03:07:28;;;;;;;50.73;28.13;;;3.50;99.90;;;;;;5030943;28;20543;-77
2021/01/03 03:09:54;;;;;;;50.47;28.60;;;3.50;99.90;;;;;;5032419;28;20179;-78
2021/01/03 03:12:19;;;;;;;46.47;26.93;;;3.60;99.90;;;;;;5027731;28;20217;-77
2021/01/03 03:14:45;;;;;;;52.47;28.63;;;3.60;99.90;;;;;;5028378;28;20183;-78
2021/01/03 03:17:11;;;;;;;48.27;27.77;;;3.60;99.90;;;;;;5030847;28;20215;-77
2021/01/03 03:19:37;;;;;;;47.07;26.07;;;3.50;99.90;;;;;;5031677;28;20175;-77
2021/01/03 03:22:02;;;;;;;44.47;25.77;;;3.60;99.90;;;;;;5032519;28;20563;-77
2021/01/03 03:24:28;;;;;;;45.60;25.70;;;3.60;99.90;;;;;;5032667;28;20260;-77
2021/01/03 03:26:56;;;;;;;46.13;25.23;;;3.50;99.90;;;;;;5033118;28;20634;-78
2021/01/03 03:29:22;;;;;;;43.70;23.37;;;3.50;99.90;;;;;;5030622;28;20242;-77
2021/01/03 03:31:47;;;;;;;45.70;26.30;;;3.60;99.90;;;;;;5022521;28;20666;-76
2021/01/03 03:34:13;;;;;;;46.33;24.97;;;3.60;99.90;;;;;;5018008;28;20288;-78
2021/01/03 03:36:38;;;;;;;42.47;24.13;;;3.60;99.90;;;;;;5017664;28;20202;-77
2021/01/03 03:39:04;;;;;;;45.37;24.90;;;3.60;99.90;;;;;;5018574;28;20607;-77
2021/01/03 03:41:30;;;;;;;40.70;23.13;;;3.60;99.90;;;;;;5018298;28;20666;-78
2021/01/03 03:43:55;;;;;;;45.63;25.37;;;3.60;99.90;;;;;;5019192;28;20187;-78
2021/01/03 03:46:21;;;;;;;46.83;24.97;;;3.50;99.90;;;;;;5018783;28;20262;-78
2021/01/03 03:48:46;;;;;;;43.40;24.83;;;3.50;99.90;;;;;;5017654;28;20549;-76
2021/01/03 03:51:16;;;;;;;43.47;24.23;;;3.40;99.90;;;;;;5016335;28;20174;-76
2021/01/03 03:53:42;;;;;;;42.13;23.33;;;3.50;99.90;;;;;;5016833;28;20198;-75
2021/01/03 03:56:09;;;;;;;44.57;24.13;;;3.60;99.90;;;;;;5032581;28;20213;-76
2021/01/03 03:58:35;;;;;;;44.00;24.13;;;3.60;99.90;;;;;;5016796;28;20639;-76
2021/01/03 04:01:00;;;;;;;43.60;23.67;;;3.50;99.90;;;;;;5016922;28;20175;-77
2021/01/03 04:03:26;;;;;;;42.07;23.67;;;3.50;99.90;;;;;;5018450;28;20191;-77
2021/01/03 04:05:51;;;;;;;40.63;23.20;;;3.50;99.90;;;;;;5017872;28;20171;-77
2021/01/03 04:08:17;;;;;;;39.63;23.37;;;3.50;99.90;;;;;;5018075;28;20237;-78
2021/01/03 04:10:42;;;;;;;39.40;22.30;;;3.50;99.90;;;;;;5017882;28;20182;-77
2021/01/03 04:13:09;;;;;;;40.50;22.83;;;3.50;99.90;;;;;;5033996;28;20301;-78
2021/01/03 04:15:35;;;;;;;37.87;20.50;;;3.50;99.90;;;;;;5032940;28;20637;-75
2021/01/03 04:18:00;;;;;;;38.33;21.67;;;3.50;99.90;;;;;;5032955;28;20194;-76
2021/01/03 04:20:26;;;;;;;37.77;20.13;;;3.50;99.90;;;;;;5016817;28;20646;-76
2021/01/03 04:22:51;;;;;;;33.47;19.80;;;3.50;99.90;;;;;;5033539;28;20198;-76
2021/01/03 04:25:17;;;;;;;35.50;19.60;;;3.50;99.90;;;;;;5016434;28;20646;-76
2021/01/03 04:27:43;;;;;;;29.67;18.20;;;3.50;99.90;;;;;;5015731;28;20752;-76
2021/01/03 04:30:09;;;;;;;31.10;18.77;;;3.50;99.90;;;;;;5032177;28;20198;-76
2021/01/03 04:32:35;;;;;;;29.20;17.00;;;3.50;99.90;;;;;;5015682;28;20198;-76
2021/01/03 04:35:00;;;;;;;30.63;18.33;;;3.60;99.90;;;;;;5015662;28;20545;-76
2021/01/03 04:37:26;;;;;;;29.93;17.13;;;3.60;99.90;;;;;;5016686;28;20206;-78
2021/01/03 04:39:51;;;;;;;29.50;17.30;;;3.60;99.90;;;;;;5016879;28;20690;-76
2021/01/03 04:42:19;;;;;;;32.87;17.77;;;3.60;99.90;;;;;;5015333;28;20199;-75
2021/01/03 04:44:51;;;;;;;30.17;17.17;;;3.60;99.90;;;;;;5032084;28;20174;-76
2021/01/03 04:47:35;;;;;;;29.80;18.03;;;3.60;99.90;;;;;;5015861;28;20177;-76
2021/01/03 04:50:32;;;;;;;27.70;16.40;;;3.50;99.90;;;;;;5018277;28;20211;-78
2021/01/03 04:53:13;;;;;;;26.77;15.70;;;3.60;99.90;;;;;;5019686;28;20195;-78
2021/01/03 04:55:45;;;;;;;28.20;15.80;;;3.60;99.90;;;;;;5021086;28;20291;-77
2021/01/03 04:58:20;;;;;;;28.67;16.27;;;3.50;99.90;;;;;;5020079;28;20677;-77
2021/01/03 05:01:06;;;;;;;27.30;15.60;;;3.60;99.90;;;;;;5019481;28;20648;-77
2021/01/03 05:03:53;;;;;;;27.60;15.47;;;3.60;99.90;;;;;;5036403;28;20727;-77
2021/01/03 05:06:20;;;;;;;28.50;15.90;;;3.50;99.90;;;;;;5038151;28;20171;-78
2021/01/03 05:08:52;;;;;;;26.90;15.70;;;3.50;99.90;;;;;;5020494;28;20650;-78
2021/01/03 05:11:20;;;;;;;24.70;14.53;;;3.50;99.90;;;;;;5021024;28;20272;-77
2021/01/03 05:13:54;;;;;;;24.50;14.63;;;3.50;99.90;;;;;;5016695;28;20241;-78
2021/01/03 05:16:20;;;;;;;25.43;14.87;;;3.50;99.90;;;;;;5032271;28;20207;-78
2021/01/03 05:18:45;;;;;;;24.00;14.33;;;3.50;99.90;;;;;;5016190;28;20554;-78
2021/01/03 05:21:11;;;;;;;25.47;14.80;;;3.50;99.90;;;;;;5032514;28;20178;-78
2021/01/03 05:23:38;;;;;;;26.63;13.43;;;3.50;99.90;;;;;;5032478;28;20187;-78
2021/01/03 05:26:07;;;;;;;23.23;14.17;;;3.60;99.90;;;;;;5015843;28;20176;-78
2021/01/03 05:28:35;;;;;;;21.87;13.40;;;3.60;99.90;;;;;;5015700;28;20186;-77
2021/01/03 05:31:21;;;;;;;20.90;13.07;;;3.50;99.90;;;;;;5015926;28;20207;-78
2021/01/03 05:33:57;;;;;;;24.30;14.00;;;3.50;99.90;;;;;;5016757;28;20674;-78
2021/01/03 05:36:45;;;;;;;24.67;13.87;;;3.60;99.90;;;;;;5031578;28;20199;-78
2021/01/03 05:39:30;;;;;;;21.47;12.40;;;3.60;99.90;;;;;;5015950;28;20164;-76
2021/01/03 05:42:00;;;;;;;21.77;12.10;;;3.50;99.90;;;;;;5015598;28;20201;-78
2021/01/03 05:44:33;;;;;;;18.90;11.47;;;3.50;99.90;;;;;;5031523;28;20181;-78
2021/01/03 05:47:15;;;;;;;16.03;10.20;;;3.60;99.90;;;;;;5016456;28;20177;-78
2021/01/03 05:49:40;;;;;;;18.93;9.87;;;3.60;99.90;;;;;;5032864;28;20568;-78
2021/01/03 05:52:28;;;;;;;17.50;10.27;;;3.60;99.90;;;;;;5032051;28;20198;-78
2021/01/03 05:54:53;;;;;;;15.53;9.27;;;3.60;99.90;;;;;;5015442;28;20400;-76
2021/01/03 05:57:29;;;;;;;13.30;9.03;;;3.60;99.90;;;;;;5013893;28;20214;-75
2021/01/03 05:59:54;;;;;;;14.60;8.63;;;3.60;99.90;;;;;;5015708;28;20171;-78
2021/01/03 06:02:21;;;;;;;11.57;7.87;;;3.60;99.90;;;;;;5015062;28;20325;-76
2021/01/03 06:04:47;;;;;;;12.00;8.03;;;3.60;99.90;;;;;;5030666;28;20179;-75
2021/01/03 06:07:26;;;;;;;11.57;8.50;;;3.60;99.90;;;;;;5013894;28;20268;-76
2021/01/03 06:09:52;;;;;;;15.27;8.53;;;3.60;99.90;;;;;;5014540;28;20248;-76
2021/01/03 06:12:20;;;;;;;11.23;7.43;;;3.60;99.90;;;;;;5014112;28;20207;-75
2021/01/03 06:15:05;;;;;;;10.80;7.07;;;3.60;99.90;;;;;;5030694;28;20265;-76
2021/01/03 06:17:31;;;;;;;11.77;6.37;;;3.60;99.90;;;;;;5016356;28;20216;-76
2021/01/03 06:20:08;;;;;;;10.00;6.60;;;3.70;99.90;;;;;;5030439;28;20171;-76
2021/01/03 06:22:45;;;;;;;11.77;6.43;;;3.70;99.90;;;;;;5030542;28;20194;-76
2021/01/03 06:25:30;;;;;;;9.47;6.00;;;3.60;99.90;;;;;;5014465;28;20613;-76
2021/01/03 06:28:01;;;;;;;9.40;6.17;;;3.60;99.90;;;;;;5031480;28;20174;-76
2021/01/03 06:30:27;;;;;;;9.87;6.13;;;3.70;99.90;;;;;;5014648;28;20537;-76
2021/01/03 06:33:01;;;;;;;10.27;6.23;;;3.70;99.90;;;;;;5014083;28;20205;-76
2021/01/03 06:35:35;;;;;;;10.07;5.80;;;3.60;99.90;;;;;;5030334;28;20174;-76
2021/01/03 06:38:13;;;;;;;10.50;6.20;;;3.60;99.90;;;;;;5031375;28;20205;-76
2021/01/03 06:40:40;;;;;;;9.83;6.37;;;3.70;99.90;;;;;;5031615;28;20170;-75
2021/01/03 06:43:44;;;;;;;11.77;6.20;;;3.60;99.90;;;;;;5014135;28;20202;-76
2021/01/03 06:46:31;;;;;;;10.30;5.60;;;3.70;99.90;;;;;;5029099;28;20178;-75
2021/01/03 06:49:12;;;;;;;9.43;6.07;;;3.70;99.90;;;;;;5016321;28;20175;-76
2021/01/03 06:52:01;;;;;;;8.57;5.43;;;3.70;99.90;;;;;;5027963;28;20190;-75
2021/01/03 06:54:32;;;;;;;11.57;5.97;;;3.70;99.90;;;;;;5034019;28;20265;-76
2021/01/03 06:57:03;;;;;;;10.57;6.53;;;3.60;99.90;;;;;;5033662;28;20296;-75
2021/01/03 07:00:06;;;;;;;9.83;6.30;;;3.60;99.90;;;;;;5033694;28;20194;-76
2021/01/03 07:02:32;;;;;;;9.63;5.70;;;3.50;99.90;;;;;;5034944;28;20212;-76
2021/01/03 07:05:06;;;;;;;7.93;5.30;;;3.60;99.90;;;;;;5017333;28;20527;-76
2021/01/03 07:07:34;;;;;;;7.70;5.43;;;3.60;99.90;;;;;;5017608;28;20171;-76
2021/01/03 07:10:02;;;;;;;9.87;6.17;;;3.50;99.90;;;;;;5017639;28;20590;-75
2021/01/03 07:12:51;;;;;;;8.83;5.60;;;3.60;99.90;;;;;;5034514;28;20211;-76
2021/01/03 07:15:25;;;;;;;7.77;5.47;;;3.60;99.90;;;;;;5031198;28;20191;-75
2021/01/03 07:17:56;;;;;;;8.33;5.13;;;3.60;99.90;;;;;;5034448;28;20173;-75
2021/01/03 07:20:33;;;;;;;7.93;5.00;;;3.60;99.90;;;;;;5033170;28;20282;-76
2021/01/03 07:23:14;;;;;;;6.60;4.50;;;3.70;99.90;;;;;;5033473;28;20197;-78
2021/01/03 07:26:09;;;;;;;8.37;5.50;;;3.60;99.90;;;;;;5017358;28;20182;-76
2021/01/03 07:28:35;;;;;;;7.23;4.90;;;3.60;99.90;;;;;;5033606;28;20185;-76
2021/01/03 07:31:01;;;;;;;7.83;5.13;;;3.60;99.90;;;;;;5016573;28;20266;-77
2021/01/03 07:33:33;;;;;;;6.87;5.10;;;3.60;99.90;;;;;;5034335;28;20194;-77
2021/01/03 07:36:15;;;;;;;7.17;4.60;;;3.60;99.90;;;;;;5001092;28;20275;-76
2021/01/03 07:38:41;;;;;;;6.90;4.90;;;3.60;99.90;;;;;;5016924;28;20532;-76
2021/01/03 07:41:07;;;;;;;7.77;4.93;;;3.70;99.90;;;;;;5016638;28;20224;-77
2021/01/03 07:43:56;;;;;;;7.30;5.10;;;3.60;99.90;;;;;;5016411;28;20190;-76
2021/01/03 07:46:43;;;;;;;7.10;4.63;;;3.70;99.90;;;;;;5016916;28;20270;-76
2021/01/03 07:49:48;;;;;;;5.87;4.17;;;3.60;99.90;;;;;;5032941;28;20224;-76
2021/01/03 07:52:16;;;;;;;7.27;4.90;;;3.60;99.90;;;;;;5022484;28;20294;-76
2021/01/03 07:54:49;;;;;;;7.83;4.50;;;3.60;99.90;;;;;;5033968;28;20179;-76
2021/01/03 07:57:15;;;;;;;8.77;4.87;;;3.60;99.90;;;;;;5015935;28;20554;-75
2021/01/03 07:59:41;;;;;;;5.80;4.20;;;3.60;99.90;;;;;;5016153;28;20228;-76
2021/01/03 08:02:06;;;;;;;8.07;4.90;;;3.60;99.90;;;;;;5016394;28;20275;-75
2021/01/03 08:04:35;;;;;;;7.33;4.70;;;3.60;99.90;;;;;;5032740;28;20202;-75
2021/01/03 08:07:05;;;;;;;7.50;4.60;;;3.60;99.90;;;;;;5016217;28;20179;-75
2021/01/03 08:09:31;;;;;;;7.37;4.40;;;3.60;99.90;;;;;;5016319;28;20547;-75
2021/01/03 08:12:03;;;;;;;7.33;4.27;;;3.60;99.90;;;;;;5015985;28;20202;-74
2021/01/03 08:14:32;;;;;;;6.73;4.50;;;3.60;99.90;;;;;;5016327;28;20179;-75
2021/01/03 08:17:01;;;;;;;6.10;3.93;;;3.60;99.90;;;;;;5015793;28;20231;-75
2021/01/03 08:19:27;;;;;;;7.43;4.33;;;3.60;99.90;;;;;;5016332;28;20182;-74
2021/01/03 08:21:57;;;;;;;5.53;4.50;;;3.60;99.90;;;;;;5032167;28;20171;-75
2021/01/03 08:24:23;;;;;;;6.27;4.23;;;3.50;99.90;;;;;;5015890;28;20172;-75
2021/01/03 08:26:59;;;;;;;9.00;5.87;;;3.60;99.90;;;;;;5015579;28;20284;-75
2021/01/03 08:29:47;;;;;;;7.33;4.30;;;3.60;99.90;;;;;;5032343;28;20239;-75
2021/01/03 08:32:18;;;;;;;5.70;3.90;;;3.60;99.90;;;;;;5031870;28;20191;-75
2021/01/03 08:34:44;;;;;;;7.67;4.60;;;3.60;99.90;;;;;;5015677;28;20181;-75
2021/01/03 08:37:23;;;;;;;6.97;4.27;;;3.60;99.90;;;;;;5015314;28;20282;-75
2021/01/03 08:39:50;;;;;;;5.93;4.17;;;3.70;99.90;;;;;;5016964;28;20194;-75
2021/01/03 08:42:33;;;;;;;6.90;4.10;;;3.70;99.90;;;;;;5031755;28;20191;-75
2021/01/03 08:44:58;;;;;;;4.47;3.40;;;3.70;99.90;;;;;;5015835;28;20170;-75
2021/01/03 08:47:38;;;;;;;4.23;3.70;;;3.70;99.90;;;;;;5015120;28;20175;-75
2021/01/03 08:50:25;;;;;;;6.63;3.97;;;3.70;99.90;;;;;;5016626;28;20208;-75
2021/01/03 08:53:01;;;;;;;6.53;4.03;;;3.70;99.90;;;;;;5032649;28;20389;-75
2021/01/03 08:55:28;;;;;;;6.07;4.40;;;3.70;99.90;;;;;;5015584;28;20182;-75
2021/01/03 08:57:56;;;;;;;5.90;4.00;;;3.70;99.90;;;;;;5015173;28;20163;-75
2021/01/03 09:00:23;;;;;;;5.57;3.93;;;3.70;99.90;;;;;;5015214;28;20174;-74
2021/01/03 09:02:48;;;;;;;5.60;3.83;;;3.70;99.90;;;;;;5015071;28;20225;-75
2021/01/03 09:05:18;;;;;;;5.77;4.27;;;3.70;99.90;;;;;;5014753;28;20535;-76
2021/01/03 09:07:44;;;;;;;7.23;4.03;;;3.70;99.90;;;;;;5031216;28;20194;-75
2021/01/03 09:10:21;;;;;;;6.17;4.00;;;3.70;99.90;;;;;;5014091;28;20171;-75
2021/01/03 09:12:47;;;;;;;6.23;4.47;;;3.70;99.90;;;;;;5015272;28;20696;-75
2021/01/03 09:15:16;;;;;;;6.43;4.30;;;3.70;99.90;;;;;;5014852;28;20182;-75
2021/01/03 09:17:42;;;;;;;7.57;4.40;;;3.80;99.90;;;;;;5015212;28;20289;-75
2021/01/03 09:20:19;;;;;;;6.40;4.13;;;3.80;99.90;;;;;;5014795;28;20266;-75
2021/01/03 09:22:47;;;;;;;9.00;5.33;;;3.80;99.90;;;;;;5014632;28;20207;-75
2021/01/03 09:25:13;;;;;;;6.17;4.10;;;3.70;99.90;;;;;;5014994;28;20266;-75
2021/01/03 09:27:38;;;;;;;5.93;4.17;;;3.70;99.90;;;;;;5030871;28;20273;-75
2021/01/03 09:30:12;;;;;;;7.13;4.53;;;3.80;99.90;;;;;;5014677;28;20189;-75
2021/01/03 09:32:37;;;;;;;6.10;4.50;;;3.80;99.90;;;;;;5030938;28;20217;-75
2021/01/03 09:35:15;;;;;;;7.87;4.30;;;3.80;99.90;;;;;;5014252;28;20175;-75
2021/01/03 09:37:41;;;;;;;7.50;4.37;;;3.80;99.90;;;;;;5032034;28;20267;-75
2021/01/03 09:40:38;;;;;;;6.47;4.40;;;3.80;99.90;;;;;;5014500;28;20255;-75
2021/01/03 09:43:37;;;;;;;6.47;4.20;;;3.80;99.90;;;;;;5016401;28;20191;-75
2021/01/03 09:46:09;;;;;;;7.93;4.73;;;3.90;99.90;;;;;;5015591;28;20185;-75
2021/01/03 09:48:37;;;;;;;6.37;4.40;;;3.80;99.90;;;;;;5030800;28;20250;-75
2021/01/03 09:51:23;;;;;;;5.43;4.57;;;3.90;99.90;;;;;;5030736;28;20167;-75
2021/01/03 09:53:49;;;;;;;5.97;4.10;;;3.80;99.90;;;;;;5014107;28;20573;-75
2021/01/03 09:56:21;;;;;;;6.07;4.60;;;3.90;99.90;;;;;;5014038;28;20209;-75
2021/01/03 09:58:48;;;;;;;6.57;4.70;;;3.90;99.90;;;;;;5014852;28;20309;-75
2021/01/03 10:01:31;;;;;;;5.73;4.00;;;3.90;99.90;;;;;;5014610;28;20167;-75
2021/01/03 10:04:35;;;;;;;7.10;4.70;;;3.90;99.90;;;;;;5014590;28;20191;-75
2021/01/03 10:07:13;;;;;;;5.97;4.43;;;3.90;99.90;;;;;;5021983;28;20557;-75
2021/01/03 10:09:38;;;;;;;6.43;4.57;;;3.90;99.90;;;;;;5014199;28;20171;-75
2021/01/03 10:12:18;;;;;;;6.57;4.17;;;4.00;99.90;;;;;;5014090;28;20301;-75
2021/01/03 10:14:44;;;;;;;6.40;4.37;;;4.00;99.90;;;;;;5030542;28;20177;-75
2021/01/03 10:17:13;;;;;;;6.23;4.83;;;4.00;99.90;;;;;;5013675;28;20686;-75
2021/01/03 10:19:39;;;;;;;5.33;4.30;;;4.10;99.90;;;;;;5030500;28;20171;-75
2021/01/03 10:22:04;;;;;;;7.93;5.23;;;4.10;99.90;;;;;;5033551;28;20191;-75
2021/01/03 10:24:30;;;;;;;8.47;5.20;;;4.10;99.90;;;;;;5034973;28;20545;-75
2021/01/03 10:27:05;;;;;;;6.63;4.87;;;4.10;99.90;;;;;;5035611;28;20654;-75
2021/01/03 10:29:35;;;;;;;6.80;4.70;;;4.10;99.90;;;;;;5035525;28;20173;-75
2021/01/03 10:32:00;;;;;;;6.40;4.57;;;4.10;99.90;;;;;;5018369;28;20623;-75
2021/01/03 10:34:26;;;;;;;5.80;4.53;;;4.10;99.90;;;;;;5017951;28;20269;-75
2021/01/03 10:36:53;;;;;;;7.60;4.73;;;4.20;99.90;;;;;;5017687;28;20209;-75
2021/01/03 10:39:18;;;;;;;7.40;4.87;;;4.30;99.90;;;;;;5035466;28;20171;-75
2021/01/03 10:41:44;;;;;;;6.07;4.70;;;4.30;99.90;;;;;;5033701;28;20178;-75
2021/01/03 10:44:10;;;;;;;7.20;5.17;;;4.30;99.90;;;;;;5034477;28;20163;-75
2021/01/03 10:46:37;;;;;;;7.13;5.30;;;4.30;99.90;;;;;;5017452;28;20554;-75
2021/01/03 10:49:03;;;;;;;9.13;5.60;;;4.20;99.90;;;;;;5017704;28;20300;-75
2021/01/03 10:51:30;;;;;;;8.53;5.73;;;4.30;99.90;;;;;;5017336;28;20246;-75
2021/01/03 10:53:56;;;;;;;7.50;5.37;;;4.30;99.90;;;;;;5017835;28;20230;-75
2021/01/03 10:56:21;;;;;;;8.23;5.57;;;4.30;99.90;;;;;;5017116;28;20229;-75
2021/01/03 10:58:47;;;;;;;8.73;5.53;;;4.30;99.90;;;;;;5033806;28;20179;-75
2021/01/03 11:01:13;;;;;;;8.47;6.20;;;4.40;99.90;;;;;;5033692;28;20616;-75
2021/01/03 11:03:40;;;;;;;8.47;5.97;;;4.30;99.90;;;;;;5017046;28;20194;-75
2021/01/03 11:06:06;;;;;;;10.40;6.57;;;4.40;99.90;;;;;;5017327;28;20175;-75
2021/01/03 11:08:31;;;;;;;7.90;5.80;;;4.30;99.90;;;;;;5017168;28;20526;-75
2021/01/03 11:10:57;;;;;;;12.73;7.37;;;4.40;99.90;;;;;;5016977;28;20706;-75
2021/01/03 11:13:22;;;;;;;11.17;7.47;;;4.40;99.90;;;;;;5016942;28;20891;-75
2021/01/03 11:15:48;;;;;;;7.50;5.43;;;4.30;99.90;;;;;;5016905;28;20222;-75
2021/01/03 11:18:14;;;;;;;7.70;6.00;;;4.40;99.90;;;;;;5017023;28;20182;-75
2021/01/03 11:20:39;;;;;;;9.20;6.00;;;4.30;99.90;;;;;;5033424;28;20177;-75
2021/01/03 11:23:05;;;;;;;8.60;5.97;;;4.30;99.90;;;;;;5033200;28;20232;-75
2021/01/03 11:25:30;;;;;;;11.27;6.77;;;4.30;99.90;;;;;;5016888;28;20167;-75
2021/01/03 11:27:56;;;;;;;13.13;7.20;;;4.30;99.90;;;;;;5034294;28;20175;-75
2021/01/03 11:30:22;;;;;;;9.83;6.47;;;4.30;99.90;;;;;;5016844;28;20185;-75
2021/01/03 11:32:47;;;;;;;9.40;6.07;;;4.30;99.90;;;;;;5015707;28;20255;-75
2021/01/03 11:35:13;;;;;;;14.27;8.07;;;4.30;99.90;;;;;;5032961;28;20524;-75
2021/01/03 11:37:39;;;;;;;13.27;7.37;;;4.30;99.90;;;;;;5016549;28;20273;-75
2021/01/03 11:40:05;;;;;;;11.93;6.93;;;4.40;99.90;;;;;;5016515;28;20262;-75
2021/01/03 11:42:36;;;;;;;12.67;7.47;;;4.30;99.90;;;;;;5016372;28;20253;-75
2021/01/03 11:45:03;;;;;;;11.80;7.57;;;4.30;99.90;;;;;;5016905;28;20270;-75
2021/01/03 11:47:29;;;;;;;13.57;8.27;;;4.30;99.90;;;;;;5032898;28;20185;-75
2021/01/03 11:49:54;;;;;;;15.03;8.83;;;4.30;99.90;;;;;;5032991;28;20628;-75
2021/01/03 11:52:20;;;;;;;12.60;8.10;;;4.30;99.90;;;;;;5016100;28;20238;-75
2021/01/03 11:54:46;;;;;;;12.90;8.00;;;4.30;99.90;;;;;;5016325;28;20183;-75
2021/01/03 11:57:11;;;;;;;12.27;7.20;;;4.40;99.90;;;;;;5032602;28;20278;-75
2021/01/03 11:59:37;;;;;;;9.53;6.70;;;4.40;99.90;;;;;;5016288;28;20175;-75
2021/01/03 12:02:07;;;;;;;13.10;7.37;;;4.40;99.90;;;;;;5016257;28;20560;-75
2021/01/03 12:04:33;;;;;;;12.50;5.87;;;4.40;99.90;;;;;;5016330;28;20221;-75
2021/01/03 12:07:01;;;;;;;10.70;6.27;;;4.40;99.90;;;;;;5032230;28;20257;-75
2021/01/03 12:09:28;;;;;;;13.67;6.30;;;4.40;99.90;;;;;;5032485;28;20179;-75
2021/01/03 12:11:58;;;;;;;12.67;7.23;;;4.40;99.90;;;;;;5016247;28;20179;-75
2021/01/03 12:14:24;;;;;;;9.57;5.80;;;4.40;99.90;;;;;;5016321;28;20177;-75
2021/01/03 12:16:59;;;;;;;11.83;5.80;;;4.50;99.90;;;;;;5015588;28;20681;-75
2021/01/03 12:19:25;;;;;;;9.20;5.80;;;4.50;99.90;;;;;;5016447;28;20177;-75
2021/01/03 12:21:51;;;;;;;12.00;6.37;;;4.60;99.90;;;;;;5032389;28;20194;-75
2021/01/03 12:24:17;;;;;;;9.77;5.83;;;4.60;99.90;;;;;;5015868;28;20171;-75
2021/01/03 12:26:42;;;;;;;10.40;4.80;;;4.50;99.90;;;;;;5015392;28;20189;-75
2021/01/03 12:29:09;;;;;;;9.33;5.33;;;4.50;99.90;;;;;;5015777;28;20530;-75
2021/01/03 12:31:36;;;;;;;24.07;9.20;;;4.40;99.90;;;;;;5015581;28;20189;-75
2021/01/03 12:34:01;;;;;;;39.43;14.93;;;4.40;99.90;;;;;;5015727;28;20562;-75
2021/01/03 12:36:27;;;;;;;18.40;9.77;;;4.40;99.90;;;;;;5031404;28;20198;-75
2021/01/03 12:38:52;;;;;;;18.93;8.30;;;4.40;99.90;;;;;;5032040;28;20170;-75
2021/01/03 12:41:19;;;;;;;12.60;6.87;;;4.50;99.90;;;;;;5015414;28;20653;-75
2021/01/03 12:43:46;;;;;;;20.33;9.30;;;4.50;99.90;;;;;;5031602;28;20191;-75
2021/01/03 12:46:12;;;;;;;13.83;7.43;;;4.50;99.90;;;;;;5015363;28;20198;-75
2021/01/03 12:48:37;;;;;;;15.37;7.73;;;4.50;99.90;;;;;;5015348;28;20634;-75
2021/01/03 12:51:03;;;;;;;21.00;9.40;;;4.60;99.90;;;;;;5031584;28;20266;-75
2021/01/03 12:53:29;;;;;;;12.87;5.90;;;4.60;99.90;;;;;;5015275;28;20333;-75
2021/01/03 12:55:54;;;;;;;9.97;6.03;;;4.40;99.90;;;;;;5015100;28;20226;-75
2021/01/03 12:58:20;;;;;;;10.63;5.87;;;4.40;99.90;;;;;;5014959;28;20604;-75